Time;durP1;ratioP1;P1;durP2;ratioP2;P2;SDS_P1;SDS_P2;PMS_P1;PMS_P2;Temp;Humidity;BMP_temperature;BMP_pressure;BME280_temperature;BME280_humidity;BME280_pressure;Samples;Min_cycle;Max_cycle;Signal;HPM_P1;HPM_P2
2022/03/02 00:00:59;;;;;;;4.55;1.30;;;;;;;20.58;35.52;101958.84;4995862;28;20380;-73
2022/03/02 00:03:25;;;;;;;4.32;1.30;;;;;;;20.51;36.88;101955.44;4995340;28;20030;-75
2022/03/02 00:05:52;;;;;;;2.58;0.85;;;;;;;20.43;37.95;101956.66;5004482;28;20176;-76
2022/03/02 00:08:19;;;;;;;1.75;0.70;;;;;;;20.33;38.33;101953.75;4996182;28;20504;-75
2022/03/02 00:10:45;;;;;;;3.63;0.93;;;;;;;20.04;39.10;101959.19;4996114;28;20034;-76
2022/03/02 00:13:11;;;;;;;4.18;1.13;;;;;;;20.07;39.96;101960.59;4994794;28;20364;-76
2022/03/02 00:15:38;;;;;;;1.70;0.85;;;;;;;19.90;41.47;101963.25;4995475;28;20026;-75
2022/03/02 00:18:04;;;;;;;2.25;0.75;;;;;;;19.76;42.57;101957.25;4996072;28;20057;-76
2022/03/02 00:20:31;;;;;;;3.88;0.88;;;;;;;19.62;43.02;101955.88;5011090;28;20030;-76
2022/03/02 00:22:57;;;;;;;2.80;1.20;;;;;;;19.44;43.76;101948.66;4992760;28;21523;-73
2022/03/02 00:25:23;;;;;;;1.45;0.88;;;;;;;19.36;44.00;101945.47;4992554;28;20066;-73
2022/03/02 00:27:49;;;;;;;4.93;1.20;;;;;;;19.34;43.85;101944.91;4993871;28;20113;-72
2022/03/02 00:30:16;;;;;;;3.05;1.30;;;;;;;19.29;43.97;101937.47;4994062;28;20026;-76
2022/03/02 00:32:42;;;;;;;4.85;1.25;;;;;;;19.24;44.05;101954.47;4995107;28;20519;-73
2022/03/02 00:35:08;;;;;;;1.55;0.80;;;;;;;19.25;44.70;101953.41;4993742;28;20149;-73
2022/03/02 00:37:34;;;;;;;4.85;1.30;;;;;;;19.26;44.03;101946.06;4993277;28;20388;-73
2022/03/02 00:40:01;;;;;;;4.50;1.08;;;;;;;19.21;43.72;101946.81;4994352;28;20365;-73
2022/03/02 00:42:29;;;;;;;4.95;1.10;;;;;;;19.28;44.38;101937.72;4995859;28;20121;-73
2022/03/02 00:44:56;;;;;;;2.45;1.15;;;;;;;19.24;44.60;101932.75;4995211;28;20110;-74
2022/03/02 00:47:23;;;;;;;4.30;1.30;;;;;;;19.36;45.10;101935.44;4995216;28;20467;-73
2022/03/02 00:49:49;;;;;;;2.75;1.08;;;;;;;19.36;44.37;101929.19;4997489;28;20100;-73
2022/03/02 00:52:15;;;;;;;1.67;0.88;;;;;;;19.38;44.85;101929.81;4996353;28;20038;-73
2022/03/02 00:54:42;;;;;;;2.33;0.95;;;;;;;19.31;41.94;101926.38;4994398;28;20030;-73
2022/03/02 00:57:08;;;;;;;4.65;1.00;;;;;;;19.34;43.04;101932.16;4994534;28;20080;-71
2022/03/02 00:59:34;;;;;;;2.03;0.88;;;;;;;19.30;43.10;101930.16;4995108;28;20053;-70
2022/03/02 01:02:00;;;;;;;3.00;1.00;;;;;;;19.23;41.97;101928.38;4993869;28;20465;-70
2022/03/02 01:04:26;;;;;;;2.28;0.90;;;;;;;19.17;42.88;101923.91;4992702;28;20294;-70
2022/03/02 01:06:53;;;;;;;2.83;0.90;;;;;;;19.16;43.87;101926.88;4992872;28;20364;-70
2022/03/02 01:09:19;;;;;;;4.20;0.93;;;;;;;19.11;44.10;101918.59;4994478;28;20037;-70
2022/03/02 01:11:45;;;;;;;1.98;0.90;;;;;;;19.12;43.94;101922.97;4991510;28;20034;-70
2022/03/02 01:14:11;;;;;;;1.65;0.70;;;;;;;19.04;44.53;101915.16;4992489;28;20030;-70
2022/03/02 01:16:37;;;;;;;2.63;1.00;;;;;;;18.85;42.52;101928.03;4993866;28;20069;-73
2022/03/02 01:19:04;;;;;;;2.53;1.13;;;;;;;18.78;43.20;101924.59;4993147;28;20033;-73
2022/03/02 01:21:30;;;;;;;1.30;0.73;;;;;;;18.66;41.50;101925.38;4993824;28;20022;-73
2022/03/02 01:23:57;;;;;;;6.20;1.00;;;;;;;18.53;40.56;101930.19;4992074;28;20034;-73
2022/03/02 01:26:29;;;;;;;3.58;1.00;;;;;;;18.37;41.81;101924.34;4993234;28;20041;-73
2022/03/02 01:28:55;;;;;;;3.90;1.17;;;;;;;18.25;42.32;101933.50;4993597;28;20424;-73
2022/03/02 01:31:24;;;;;;;4.60;1.10;;;;;;;18.13;42.70;101928.88;4994869;28;20145;-73
2022/03/02 01:33:50;;;;;;;3.13;0.90;;;;;;;18.10;43.00;101928.50;4993458;28;20416;-73
2022/03/02 01:36:18;;;;;;;3.92;0.90;;;;;;;18.09;43.74;101927.69;4993651;28;20082;-70
2022/03/02 01:38:44;;;;;;;2.25;1.02;;;;;;;18.00;43.86;101933.66;4993246;28;20120;-70
2022/03/02 01:41:14;;;;;;;2.05;1.10;;;;;;;17.92;44.40;101932.09;4993233;28;20034;-71
2022/03/02 01:43:40;;;;;;;1.60;0.93;;;;;;;17.71;44.30;101938.75;4993904;28;20030;-70
2022/03/02 01:46:07;;;;;;;3.55;1.02;;;;;;;17.64;45.06;101933.44;4991371;28;20380;-70
2022/03/02 01:48:33;;;;;;;3.75;1.17;;;;;;;17.52;45.42;101939.84;4992077;28;20479;-73
2022/03/02 01:51:00;;;;;;;4.72;1.38;;;;;;;17.45;46.22;101949.91;5008201;28;20030;-74
2022/03/02 01:53:26;;;;;;;2.45;1.10;;;;;;;17.29;46.80;101952.16;4992592;28;20123;-71
2022/03/02 01:55:56;;;;;;;2.70;1.10;;;;;;;17.12;46.89;101945.66;4990972;28;20019;-73
2022/03/02 01:58:24;;;;;;;2.35;0.80;;;;;;;16.99;44.60;101945.75;4995230;28;20033;-76
2022/03/02 02:00:51;;;;;;;1.98;0.60;;;;;;;17.00;43.93;101950.16;4994378;28;20022;-76
2022/03/02 02:03:18;;;;;;;1.63;0.90;;;;;;;16.79;45.18;101945.94;4993981;28;20038;-76
2022/03/02 02:05:44;;;;;;;1.75;0.75;;;;;;;16.82;46.04;101949.03;4995607;28;20030;-77
2022/03/02 02:08:11;;;;;;;3.33;0.80;;;;;;;16.66;46.68;101957.66;4993578;28;20396;-77
2022/03/02 02:10:37;;;;;;;1.90;0.90;;;;;;;16.54;47.49;101960.22;4992940;28;20453;-77
2022/03/02 02:13:04;;;;;;;1.35;0.80;;;;;;;16.44;47.30;101957.19;4993031;28;20630;-77
2022/03/02 02:15:33;;;;;;;2.50;0.80;;;;;;;16.31;47.55;101959.94;4993546;28;20022;-77
2022/03/02 02:17:59;;;;;;;1.55;0.75;;;;;;;16.17;46.96;101963.78;4993161;28;20034;-76
2022/03/02 02:20:25;;;;;;;4.10;0.80;;;;;;;16.05;46.76;101963.63;4993326;28;20026;-74
2022/03/02 02:22:51;;;;;;;2.67;1.55;;;;;;;15.89;46.59;101956.84;4993146;28;20057;-73
2022/03/02 02:25:19;;;;;;;1.80;0.95;;;;;;;15.69;45.65;101950.69;4992308;28;20032;-73
2022/03/02 02:27:47;;;;;;;2.05;0.90;;;;;;;15.55;45.62;101964.19;4992976;28;20030;-73
2022/03/02 02:30:15;;;;;;;0.85;0.70;;;;;;;15.49;45.65;101950.69;5009001;28;20040;-73
2022/03/02 02:32:42;;;;;;;2.08;0.95;;;;;;;15.34;45.61;101950.97;4993086;28;20022;-73
2022/03/02 02:35:10;;;;;;;2.03;0.70;;;;;;;15.18;46.05;101954.91;4992263;28;20041;-72
2022/03/02 02:37:38;;;;;;;1.48;0.70;;;;;;;15.07;46.04;101957.44;4994844;28;20033;-76
2022/03/02 02:40:26;;;;;;;0.80;0.57;;;;;;;14.89;45.89;101964.28;4992599;28;20023;-76
2022/03/02 02:42:52;;;;;;;1.70;0.80;;;;;;;14.76;45.98;101966.94;4951878;29;20074;-76
2022/03/02 02:45:21;;;;;;;1.33;0.57;;;;;;;14.60;46.11;101961.94;4953016;28;20473;-76
2022/03/02 02:47:49;;;;;;;1.85;0.50;;;;;;;14.51;46.06;101959.47;4937163;28;20047;-76
2022/03/02 02:50:23;;;;;;;1.63;0.60;;;;;;;14.36;46.98;101960.63;4952636;28;20034;-76
2022/03/02 02:52:51;;;;;;;2.22;0.70;;;;;;;14.25;47.35;101972.84;4951899;29;20035;-76
2022/03/02 02:55:18;;;;;;;3.92;2.20;;;;;;;14.12;47.15;101967.41;4953031;28;20051;-76
2022/03/02 02:57:45;;;;;;;1.67;0.98;;;;;;;13.98;47.73;101970.03;4953004;28;20046;-75
2022/03/02 03:00:14;;;;;;;2.17;0.82;;;;;;;13.93;47.85;101977.06;4952500;28;20998;-76
2022/03/02 03:02:41;;;;;;;1.35;0.70;;;;;;;13.83;47.43;101982.84;4954704;28;20031;-75
2022/03/02 03:05:12;;;;;;;2.05;0.60;;;;;;;13.75;48.19;101985.66;4935826;29;20039;-75
2022/03/02 03:07:42;;;;;;;1.05;0.52;;;;;;;13.68;47.96;101992.88;4936289;29;20074;-75
2022/03/02 03:10:09;;;;;;;1.92;0.68;;;;;;;13.20;49.76;101982.81;4950643;29;20113;-75
2022/03/02 03:12:35;;;;;;;2.08;0.70;;;;;;;13.16;50.37;101983.41;4950503;28;20544;-76
2022/03/02 03:15:05;;;;;;;2.30;0.60;;;;;;;13.22;49.96;101993.41;4951997;28;20039;-76
2022/03/02 03:17:31;;;;;;;1.83;0.90;;;;;;;13.20;49.89;101998.09;4948611;29;20035;-75
2022/03/02 03:19:57;;;;;;;1.98;0.70;;;;;;;13.16;50.12;101999.53;4976388;28;20484;-74
2022/03/02 03:22:24;;;;;;;2.80;0.70;;;;;;;13.07;50.27;101996.16;4994176;28;20516;-76
2022/03/02 03:24:50;;;;;;;2.42;0.70;;;;;;;13.06;50.80;102010.63;4992498;28;20449;-75
2022/03/02 03:27:16;;;;;;;1.85;0.60;;;;;;;12.92;52.23;102022.25;4992409;28;20095;-75
2022/03/02 03:29:43;;;;;;;2.35;0.90;;;;;;;12.85;52.03;102021.38;4992482;28;20086;-75
2022/03/02 03:32:09;;;;;;;1.85;0.80;;;;;;;12.79;52.10;102020.28;4992125;28;20113;-75
2022/03/02 03:34:35;;;;;;;1.45;1.17;;;;;;;12.57;53.48;102024.81;4994196;28;20034;-75
2022/03/02 03:37:01;;;;;;;2.22;1.15;;;;;;;12.58;53.98;102014.91;4994969;28;20413;-73
2022/03/02 03:39:27;;;;;;;2.88;1.27;;;;;;;12.56;54.14;102017.78;4992105;28;20077;-73
2022/03/02 03:41:55;;;;;;;2.33;1.35;;;;;;;12.56;54.10;102016.97;4993361;28;20117;-71
2022/03/02 03:44:22;;;;;;;3.53;1.80;;;;;;;12.48;53.95;102023.25;4993661;28;20031;-72
2022/03/02 03:46:49;;;;;;;3.80;1.98;;;;;;;12.39;54.73;102019.88;4995481;28;20456;-72
2022/03/02 03:49:15;;;;;;;2.90;1.98;;;;;;;12.28;55.25;102023.03;4996183;28;20029;-72
2022/03/02 03:51:42;;;;;;;3.65;2.05;;;;;;;12.21;55.41;102019.44;4994769;28;20022;-72
2022/03/02 03:54:09;;;;;;;4.30;2.50;;;;;;;12.18;55.37;102027.88;4995905;28;20034;-71
2022/03/02 03:56:35;;;;;;;4.28;2.50;;;;;;;12.14;55.58;102029.25;4994623;28;20102;-72
2022/03/02 03:59:02;;;;;;;6.13;2.15;;;;;;;12.07;56.46;102022.97;4992623;28;20022;-72
2022/03/02 04:01:28;;;;;;;4.65;1.98;;;;;;;12.02;56.83;102028.06;4993396;28;20038;-73
2022/03/02 04:03:54;;;;;;;3.55;1.85;;;;;;;11.95;57.67;102032.53;4992658;28;20034;-72
2022/03/02 04:06:21;;;;;;;3.85;1.42;;;;;;;11.89;57.66;102045.66;4991332;28;20030;-72
2022/03/02 04:08:47;;;;;;;2.42;1.35;;;;;;;11.85;58.14;102057.78;4995106;28;20033;-72
2022/03/02 04:11:13;;;;;;;3.13;1.10;;;;;;;11.78;58.44;102062.19;4993687;28;20030;-72
2022/03/02 04:13:40;;;;;;;4.82;1.30;;;;;;;11.69;58.52;102059.78;4990820;28;20113;-72
2022/03/02 04:16:06;;;;;;;2.50;1.52;;;;;;;11.63;58.61;102061.34;4994224;28;20062;-73
2022/03/02 04:18:33;;;;;;;4.25;1.23;;;;;;;11.60;59.18;102064.38;4993493;28;20031;-75
2022/03/02 04:21:00;;;;;;;5.88;1.50;;;;;;;11.54;59.51;102070.47;4993932;28;20456;-74
2022/03/02 04:23:26;;;;;;;2.60;0.80;;;;;;;11.48;59.92;102073.88;4995917;28;20046;-74
2022/03/02 04:25:53;;;;;;;2.90;1.17;;;;;;;11.29;60.77;102073.38;4996225;28;20053;-74
2022/03/02 04:28:20;;;;;;;2.60;1.42;;;;;;;11.32;60.48;102070.31;4995777;28;20034;-75
2022/03/02 04:30:47;;;;;;;1.95;1.30;;;;;;;11.32;60.68;102069.50;4994046;28;20026;-74
2022/03/02 04:33:13;;;;;;;4.95;1.30;;;;;;;11.20;61.63;102079.81;4995928;28;20023;-75
2022/03/02 04:35:41;;;;;;;4.55;1.38;;;;;;;11.26;61.42;102080.94;4994803;28;20027;-75
2022/03/02 04:38:08;;;;;;;3.88;1.80;;;;;;;11.20;61.83;102082.50;4997340;28;20030;-72
2022/03/02 04:40:34;;;;;;;2.38;1.10;;;;;;;11.15;62.10;102087.56;4995614;28;20026;-72
2022/03/02 04:43:00;;;;;;;3.08;1.48;;;;;;;11.16;61.98;102078.53;4995431;28;20026;-72
2022/03/02 04:45:29;;;;;;;2.95;1.23;;;;;;;10.96;62.46;102071.97;4992890;28;20472;-72
2022/03/02 04:47:57;;;;;;;5.68;1.27;;;;;;;11.02;62.44;102077.44;4994745;28;20120;-72
2022/03/02 04:50:24;;;;;;;1.85;0.80;;;;;;;11.05;62.94;102082.47;4994567;28;20041;-72
2022/03/02 04:52:52;;;;;;;1.73;0.90;;;;;;;10.98;63.53;102086.00;4994576;28;20359;-72
2022/03/02 04:55:19;;;;;;;3.88;1.17;;;;;;;10.96;63.72;102088.88;4993057;28;20045;-72
2022/03/02 04:57:49;;;;;;;1.67;1.00;;;;;;;10.93;63.90;102083.84;4993806;28;20026;-72
2022/03/02 05:00:33;;;;;;;3.35;0.90;;;;;;;10.95;64.01;102086.38;4993876;28;20033;-72
2022/03/02 05:03:02;;;;;;;1.73;0.82;;;;;;;10.89;64.76;102074.53;4992684;28;20026;-72
2022/03/02 05:05:29;;;;;;;3.60;1.10;;;;;;;10.87;65.09;102073.03;4995164;28;20121;-72
2022/03/02 05:07:55;;;;;;;3.15;1.15;;;;;;;10.78;65.46;102078.44;4995089;28;20298;-72
2022/03/02 05:10:23;;;;;;;4.75;1.20;;;;;;;10.74;65.89;102078.97;4994833;28;20479;-72
2022/03/02 05:12:49;;;;;;;1.95;1.05;;;;;;;10.71;66.59;102074.78;4993821;28;20034;-72
2022/03/02 05:15:17;;;;;;;1.70;1.00;;;;;;;10.70;66.58;102083.00;4994448;28;20036;-72
2022/03/02 05:17:44;;;;;;;3.58;1.08;;;;;;;10.65;66.57;102088.06;4994777;28;20038;-72
2022/03/02 05:20:12;;;;;;;1.13;0.65;;;;;;;10.58;67.09;102086.09;4993961;28;20033;-72
2022/03/02 05:22:39;;;;;;;2.72;0.80;;;;;;;10.54;66.95;102083.94;4992145;28;20126;-72
2022/03/02 05:25:07;;;;;;;2.67;0.82;;;;;;;10.50;67.17;102088.81;4993392;28;20069;-72
2022/03/02 05:27:34;;;;;;;2.35;0.75;;;;;;;10.42;67.95;102090.69;4994238;28;20040;-72
2022/03/02 05:30:00;;;;;;;1.35;0.70;;;;;;;10.37;68.39;102087.69;4993368;28;20037;-72
2022/03/02 05:32:27;;;;;;;1.88;0.70;;;;;;;10.11;69.35;102099.47;5009195;28;20088;-72
2022/03/02 05:34:54;;;;;;;2.75;0.88;;;;;;;10.24;69.21;102082.91;4995839;28;20050;-72
2022/03/02 05:37:20;;;;;;;2.90;0.63;;;;;;;10.13;69.62;102084.09;4993708;28;20221;-75
2022/03/02 05:39:46;;;;;;;1.63;0.68;;;;;;;10.16;69.83;102074.88;4994440;28;20027;-75
2022/03/02 05:42:12;;;;;;;2.10;0.73;;;;;;;10.15;69.94;102079.38;4993954;28;20022;-74
2022/03/02 05:44:39;;;;;;;4.13;0.90;;;;;;;10.11;70.61;102088.78;4994586;28;20045;-74
2022/03/02 05:47:05;;;;;;;1.98;0.90;;;;;;;10.09;70.10;102085.44;4994285;28;20449;-75
2022/03/02 05:49:32;;;;;;;2.67;1.20;;;;;;;10.07;70.42;102092.78;4994563;28;20056;-74
2022/03/02 05:51:58;;;;;;;1.25;0.70;;;;;;;9.93;71.27;102094.31;4995348;28;20044;-74
2022/03/02 05:54:24;;;;;;;4.07;0.80;;;;;;;9.98;71.53;102093.81;4994038;28;20160;-74
2022/03/02 05:56:50;;;;;;;1.95;0.65;;;;;;;9.96;71.42;102098.50;4993827;28;20465;-74
2022/03/02 05:59:16;;;;;;;0.93;0.75;;;;;;;9.92;72.21;102097.19;4992627;28;20034;-74
2022/03/02 06:01:44;;;;;;;1.90;0.68;;;;;;;9.93;72.80;102097.00;5000005;28;20034;-74
2022/03/02 06:04:14;;;;;;;1.15;0.85;;;;;;;9.91;72.18;102098.19;4992836;28;20022;-73
2022/03/02 06:06:40;;;;;;;0.70;0.68;;;;;;;9.88;72.11;102103.88;4994276;28;20034;-74
2022/03/02 06:09:08;;;;;;;1.33;0.60;;;;;;;9.85;72.02;102106.91;4994202;28;20030;-75
2022/03/02 06:11:37;;;;;;;0.70;0.50;;;;;;;9.74;73.29;102100.06;4993267;28;20105;-74
2022/03/02 06:14:04;;;;;;;1.90;1.10;;;;;;;9.75;73.67;102110.59;4999867;28;20034;-74
2022/03/02 06:16:31;;;;;;;2.40;0.82;;;;;;;9.76;73.93;102106.91;5001043;28;20034;-70
2022/03/02 06:18:57;;;;;;;1.65;0.63;;;;;;;9.68;73.17;102106.94;4993664;28;20023;-71
2022/03/02 06:21:29;;;;;;;3.30;0.65;;;;;;;9.63;72.61;102100.41;4993712;28;20026;-70
2022/03/02 06:23:56;;;;;;;2.40;1.10;;;;;;;9.60;73.18;102104.25;4993909;28;20018;-71
2022/03/02 06:26:23;;;;;;;1.58;0.70;;;;;;;9.51;73.00;102095.41;4992100;28;20054;-70
2022/03/02 06:28:50;;;;;;;1.48;0.60;;;;;;;9.52;72.94;102094.41;5006535;28;20464;-71
2022/03/02 06:31:18;;;;;;;2.10;0.60;;;;;;;9.48;73.17;102097.56;4992476;28;20144;-70
2022/03/02 06:33:47;;;;;;;2.42;0.80;;;;;;;9.45;73.18;102100.59;4992688;28;20026;-71
2022/03/02 06:36:14;;;;;;;2.15;0.80;;;;;;;9.39;73.44;102095.94;4991874;28;20460;-69
2022/03/02 06:38:40;;;;;;;2.45;0.68;;;;;;;9.39;73.34;102103.94;4998529;28;20025;-75
2022/03/02 06:41:47;;;;;;;1.65;0.50;;;;;;;9.31;73.67;102098.59;4992104;28;20030;-73
2022/03/02 06:44:25;;;;;;;1.35;0.70;;;;;;;9.29;74.29;102103.28;4961295;28;20118;-76
2022/03/02 06:46:57;;;;;;;1.35;0.50;;;;;;;9.22;74.82;102092.41;4961668;28;20035;-79
2022/03/02 06:49:44;;;;;;;0.55;0.45;;;;;;;9.21;75.08;102096.91;5003326;28;20049;-76
2022/03/02 06:52:12;;;;;;;1.45;0.50;;;;;;;9.18;75.86;102086.56;5013584;28;20027;-76
2022/03/02 06:54:43;;;;;;;1.33;0.50;;;;;;;9.21;75.60;102088.06;5004959;28;20038;-77
2022/03/02 06:57:14;;;;;;;1.63;0.50;;;;;;;9.16;76.21;102093.91;5007054;28;20026;-76
2022/03/02 06:59:43;;;;;;;3.03;0.80;;;;;;;9.19;75.88;102093.56;5006923;28;20035;-76
2022/03/02 07:02:12;;;;;;;2.45;0.68;;;;;;;9.11;75.67;102090.91;5010868;28;20033;-76
2022/03/02 07:04:41;;;;;;;1.50;0.60;;;;;;;8.97;75.80;102091.53;5002823;28;20061;-76
2022/03/02 07:07:08;;;;;;;3.67;0.73;;;;;;;9.07;76.48;102084.22;5004705;28;20022;-76
2022/03/02 07:09:35;;;;;;;1.73;0.55;;;;;;;9.06;76.70;102085.22;5003967;28;20058;-76
2022/03/02 07:12:04;;;;;;;1.92;0.60;;;;;;;8.95;76.61;102085.56;5004926;28;20086;-76
2022/03/02 07:14:31;;;;;;;1.27;0.40;;;;;;;8.91;77.58;102078.84;5013160;28;20026;-76
2022/03/02 07:16:59;;;;;;;0.60;0.40;;;;;;;8.88;77.71;102077.38;5006066;28;20030;-76
2022/03/02 07:19:26;;;;;;;1.95;0.70;;;;;;;8.73;78.32;102076.31;5006663;28;20548;-76
2022/03/02 07:21:54;;;;;;;0.70;0.60;;;;;;;8.87;78.39;102074.84;5007193;28;20034;-76
2022/03/02 07:24:22;;;;;;;0.57;0.50;;;;;;;8.89;77.58;102072.84;5004851;28;20034;-76
2022/03/02 07:26:54;;;;;;;0.75;0.50;;;;;;;8.90;77.37;102062.00;5007380;28;20034;-76
2022/03/02 07:29:23;;;;;;;0.85;0.63;;;;;;;8.91;77.22;102065.50;5004969;28;20027;-76
2022/03/02 07:31:53;;;;;;;0.50;0.50;;;;;;;8.87;77.03;102067.66;5005461;28;20053;-76
2022/03/02 07:34:21;;;;;;;1.27;0.63;;;;;;;8.78;76.91;102059.81;5007432;28;20034;-76
2022/03/02 07:36:47;;;;;;;2.05;0.60;;;;;;;8.82;77.96;102056.63;5007076;28;20432;-72
2022/03/02 07:39:14;;;;;;;1.58;1.10;;;;;;;8.82;78.05;102053.13;4996040;28;20441;-72
2022/03/02 07:41:40;;;;;;;1.58;0.70;;;;;;;8.81;77.94;102054.97;4995451;28;20034;-73
2022/03/02 07:44:27;;;;;;;0.90;0.70;;;;;;;8.76;77.44;102043.94;4988853;28;20053;-73
2022/03/02 07:46:53;;;;;;;1.83;0.80;;;;;;;8.72;77.15;102042.63;4993609;28;20085;-73
2022/03/02 07:49:20;;;;;;;5.38;0.80;;;;;;;8.68;77.23;102050.13;4985068;28;20037;-73
2022/03/02 07:51:48;;;;;;;1.42;0.63;;;;;;;8.63;77.12;102041.75;4989868;28;20466;-73
2022/03/02 07:54:16;;;;;;;1.35;0.70;;;;;;;8.60;76.68;102049.25;4985364;28;20040;-73
2022/03/02 07:56:44;;;;;;;0.90;0.68;;;;;;;8.61;77.35;102048.28;4981048;28;20042;-76
2022/03/02 07:59:10;;;;;;;1.98;0.90;;;;;;;8.59;77.32;102043.09;4976365;28;20037;-77
2022/03/02 08:01:38;;;;;;;0.88;0.88;;;;;;;8.59;77.56;102042.25;4994721;28;20053;-77
2022/03/02 08:04:10;;;;;;;2.70;0.60;;;;;;;8.53;77.20;102042.91;4992464;28;20060;-77
2022/03/02 08:06:38;;;;;;;2.15;0.57;;;;;;;8.52;77.64;102036.75;4971166;28;20041;-77
2022/03/02 08:09:06;;;;;;;1.35;0.60;;;;;;;8.45;77.44;102035.72;4990151;28;20049;-77
2022/03/02 08:11:34;;;;;;;0.50;0.50;;;;;;;8.42;77.51;102042.22;4995083;28;20027;-77
2022/03/02 08:14:03;;;;;;;0.70;0.45;;;;;;;8.24;78.68;102044.13;4994881;28;20034;-77
2022/03/02 08:16:30;;;;;;;2.05;0.57;;;;;;;8.20;81.37;102042.78;4988761;28;20038;-77
2022/03/02 08:19:00;;;;;;;1.50;0.52;;;;;;;8.35;82.03;102051.00;4989966;28;20058;-77
2022/03/02 08:21:36;;;;;;;1.05;0.60;;;;;;;8.45;81.62;102046.41;4993907;28;20038;-77
2022/03/02 08:24:05;;;;;;;2.15;0.52;;;;;;;8.43;81.70;102053.72;5013103;28;20022;-77
2022/03/02 08:26:36;;;;;;;1.77;0.63;;;;;;;8.47;81.33;102060.41;5018577;28;20039;-76
2022/03/02 08:29:05;;;;;;;2.42;0.60;;;;;;;8.51;81.80;102051.09;5011837;28;20372;-76
2022/03/02 08:31:32;;;;;;;1.25;0.70;;;;;;;8.55;82.00;102062.25;5011717;28;20030;-76
2022/03/02 08:34:01;;;;;;;3.00;1.00;;;;;;;8.60;82.76;102051.91;5014002;28;20064;-76
2022/03/02 08:36:33;;;;;;;2.33;0.80;;;;;;;8.62;82.73;102047.28;5012860;28;20794;-76
2022/03/02 08:39:04;;;;;;;1.75;0.60;;;;;;;8.61;82.58;102045.63;5029713;28;20050;-76
2022/03/02 08:41:31;;;;;;;1.85;1.00;;;;;;;8.64;82.80;102050.59;5016016;28;20057;-76
2022/03/02 08:43:58;;;;;;;1.10;0.60;;;;;;;8.65;82.34;102050.44;5015919;28;20022;-76
2022/03/02 08:46:26;;;;;;;1.90;0.70;;;;;;;8.63;82.00;102049.78;5015069;28;20054;-76
2022/03/02 08:48:53;;;;;;;2.33;0.90;;;;;;;8.62;81.79;102042.78;5016313;28;20022;-76
2022/03/02 08:51:24;;;;;;;1.30;0.57;;;;;;;8.63;82.32;102041.75;5023166;28;20030;-76
2022/03/02 08:53:54;;;;;;;2.05;0.68;;;;;;;8.63;82.16;102040.94;5017401;28;20045;-76
2022/03/02 08:56:21;;;;;;;2.45;0.80;;;;;;;8.65;82.20;102037.09;5018157;28;20018;-76
2022/03/02 08:58:48;;;;;;;1.17;0.60;;;;;;;8.53;81.71;102048.25;4996094;28;20427;-73
2022/03/02 09:01:15;;;;;;;2.08;0.95;;;;;;;8.53;81.41;102043.75;4993787;28;20375;-73
2022/03/02 09:03:48;;;;;;;3.22;1.60;;;;;;;8.42;81.53;102044.03;4994853;28;20045;-73
2022/03/02 09:06:22;;;;;;;4.90;1.85;;;;;;;8.48;81.66;102050.56;4999041;28;20034;-73
2022/03/02 09:08:48;;;;;;;1.20;1.10;;;;;;;8.57;81.65;102044.25;4994242;28;20077;-73
2022/03/02 09:11:15;;;;;;;1.67;0.90;;;;;;;8.54;81.52;102049.91;4994321;28;20030;-73
2022/03/02 09:13:41;;;;;;;1.77;0.70;;;;;;;8.61;81.16;102051.78;4993662;28;20456;-73
2022/03/02 09:16:08;;;;;;;2.63;1.10;;;;;;;8.65;80.67;102039.75;4994796;28;20031;-73
2022/03/02 09:18:34;;;;;;;4.03;0.88;;;;;;;8.66;80.67;102040.59;5001391;28;20030;-77
2022/03/02 09:21:03;;;;;;;2.72;1.02;;;;;;;8.70;80.56;102040.09;5007298;28;20030;-77
2022/03/02 09:23:33;;;;;;;1.13;0.80;;;;;;;8.73;80.37;102054.97;5006783;28;20068;-77
2022/03/02 09:26:11;;;;;;;1.25;1.00;;;;;;;8.75;79.51;102034.28;5011075;28;20436;-77
2022/03/02 09:28:40;;;;;;;5.88;1.42;;;;;;;8.82;79.34;102037.13;5011398;28;20061;-76
2022/03/02 09:31:11;;;;;;;2.70;0.90;;;;;;;8.83;78.52;102033.44;5017224;28;20090;-76
2022/03/02 09:33:38;;;;;;;2.05;0.93;;;;;;;8.80;78.39;102031.13;5017973;28;20034;-76
2022/03/02 09:36:09;;;;;;;2.47;0.63;;;;;;;8.80;78.92;102018.59;5017849;28;20049;-76
2022/03/02 09:38:37;;;;;;;1.88;0.68;;;;;;;8.84;78.66;102024.47;4998346;28;20101;-73
2022/03/02 09:41:17;;;;;;;3.65;0.85;;;;;;;8.85;78.39;102023.44;4994487;28;20124;-73
2022/03/02 09:43:50;;;;;;;2.33;1.00;;;;;;;8.91;77.70;102014.78;4994543;28;20050;-73
2022/03/02 09:46:24;;;;;;;1.95;0.98;;;;;;;8.93;78.48;102018.94;4993537;28;20026;-74
2022/03/02 09:48:51;;;;;;;1.85;0.80;;;;;;;8.97;78.26;102014.94;4993886;28;20053;-74
2022/03/02 09:51:22;;;;;;;1.95;0.80;;;;;;;8.99;78.33;102012.94;4993962;28;20103;-73
2022/03/02 09:53:52;;;;;;;3.00;0.93;;;;;;;9.01;78.89;102006.59;4994117;28;20027;-73
2022/03/02 09:56:22;;;;;;;2.15;0.98;;;;;;;9.03;78.46;102008.09;4994326;28;20109;-73
2022/03/02 09:58:52;;;;;;;2.22;0.70;;;;;;;9.02;78.46;102006.44;5016368;28;20042;-75
2022/03/02 10:01:23;;;;;;;2.55;0.73;;;;;;;9.01;78.15;101999.44;5027416;28;20057;-76
2022/03/02 10:03:51;;;;;;;5.15;1.00;;;;;;;8.99;77.86;101991.59;5017763;28;20026;-75
2022/03/02 10:06:19;;;;;;;3.03;1.20;;;;;;;8.93;77.84;101994.06;5024911;28;20073;-75
2022/03/02 10:08:54;;;;;;;2.78;0.80;;;;;;;8.92;77.66;101976.38;5019087;28;20087;-76
2022/03/02 10:11:23;;;;;;;1.73;0.80;;;;;;;8.92;78.22;101976.38;5018489;28;19999;-76
2022/03/02 10:13:50;;;;;;;0.95;0.60;;;;;;;8.85;78.04;101968.22;5018224;28;20030;-76
2022/03/02 10:16:28;;;;;;;1.27;1.00;;;;;;;8.82;78.24;101973.88;5018038;28;20017;-76
2022/03/02 10:18:59;;;;;;;2.67;0.70;;;;;;;8.80;78.62;101962.53;5018205;28;20033;-76
2022/03/02 10:21:42;;;;;;;1.83;0.80;;;;;;;8.73;78.61;101959.72;5018930;28;20006;-76
2022/03/02 10:24:14;;;;;;;1.95;0.70;;;;;;;8.71;78.63;101960.84;5018399;28;20030;-76
2022/03/02 10:26:56;;;;;;;1.92;1.05;;;;;;;8.66;78.68;101958.72;5017973;28;20065;-76
2022/03/02 10:29:40;;;;;;;1.40;0.70;;;;;;;8.63;78.48;101958.19;5017676;28;20045;-76
2022/03/02 10:32:17;;;;;;;1.77;0.90;;;;;;;8.60;78.63;101959.34;5018203;28;20045;-76
2022/03/02 10:34:54;;;;;;;1.83;0.60;;;;;;;8.60;78.61;101961.19;5018160;28;20030;-76
2022/03/02 10:37:36;;;;;;;1.92;0.75;;;;;;;8.56;78.84;101955.38;5010621;28;20022;-73
2022/03/02 10:40:09;;;;;;;3.30;0.70;;;;;;;8.51;78.23;101960.34;4992779;28;20342;-73
2022/03/02 10:42:42;;;;;;;0.95;0.70;;;;;;;8.50;78.47;101950.69;5000424;28;20030;-73
2022/03/02 10:45:15;;;;;;;1.65;0.70;;;;;;;8.48;78.64;101949.16;4991977;28;20033;-73
2022/03/02 10:47:53;;;;;;;1.42;0.68;;;;;;;8.45;78.39;101950.34;4991707;28;20037;-73
2022/03/02 10:50:22;;;;;;;3.58;0.88;;;;;;;8.38;78.78;101949.31;4991970;28;20445;-73
2022/03/02 10:52:49;;;;;;;1.55;0.55;;;;;;;8.34;78.57;101945.28;4993436;28;20036;-73
2022/03/02 10:55:17;;;;;;;3.17;0.50;;;;;;;8.31;78.06;101949.13;4990951;28;20054;-73
2022/03/02 10:57:48;;;;;;;1.35;0.60;;;;;;;8.28;78.20;101948.63;4992938;28;20077;-73
2022/03/02 11:00:17;;;;;;;1.77;0.60;;;;;;;8.23;78.19;101957.09;4993078;28;20501;-73
2022/03/02 11:02:57;;;;;;;0.85;0.55;;;;;;;8.21;78.22;101956.41;4993847;28;20117;-73
2022/03/02 11:05:29;;;;;;;2.40;0.70;;;;;;;8.16;78.54;101948.94;4993322;28;20094;-73
2022/03/02 11:07:56;;;;;;;1.58;0.65;;;;;;;8.14;78.28;101955.41;4993712;28;20034;-73
2022/03/02 11:10:32;;;;;;;1.40;0.68;;;;;;;8.05;78.00;101938.56;4993136;28;20019;-73
2022/03/02 11:13:02;;;;;;;1.70;0.70;;;;;;;8.03;78.35;101929.88;4993059;28;20033;-73
2022/03/02 11:15:44;;;;;;;1.33;0.70;;;;;;;8.00;78.69;101926.72;5008320;28;20049;-73
2022/03/02 11:18:10;;;;;;;3.20;1.08;;;;;;;7.95;78.46;101932.53;4992631;28;20097;-73
2022/03/02 11:20:36;;;;;;;2.58;0.73;;;;;;;7.87;78.80;101925.31;4993411;28;20121;-73
2022/03/02 11:23:06;;;;;;;2.53;0.80;;;;;;;7.87;78.35;101914.66;4993021;28;20353;-73
2022/03/02 11:25:44;;;;;;;1.70;0.68;;;;;;;7.91;78.63;101918.69;4993227;28;20057;-73
2022/03/02 11:28:15;;;;;;;2.58;0.80;;;;;;;7.85;78.91;101906.00;4992877;28;20085;-73
2022/03/02 11:30:57;;;;;;;1.25;0.73;;;;;;;7.90;79.41;101902.88;4992969;28;20033;-73
2022/03/02 11:33:26;;;;;;;2.00;0.77;;;;;;;7.87;79.53;101900.50;4991091;28;20026;-73
2022/03/02 11:36:02;;;;;;;1.52;0.88;;;;;;;7.84;79.80;101900.84;4991854;28;20050;-73